Погода Соменкина 2 недели

Смоленская область, Россия

23 мая-05 июня
  • 23мая
    Сегодня
    +9°
    +24°
    Ясно и безоблачно
    ВремяПогодаТемператураВлажностьДавлениеВетер, м/сВероятность осадков
    00:00Ясно и безоблачно+13°C92 %751 мм2.7 м/с2 %
    03:00Ясно и безоблачно+11°C94 %751 мм3.0 м/с2 %
    06:00Ясно и безоблачно+11°C72 %752 мм3.8 м/с2 %
    09:00Ясно и безоблачно+17°C63 %753 мм3.5 м/с2 %
    12:00Ясно и безоблачно+22°C50 %754 мм4.7 м/с2 %
    15:00Ясно и безоблачно+24°C40 %754 мм4.8 м/с2 %
    18:00Ясно и безоблачно+23°C41 %753 мм4.6 м/с2 %
    21:00Ясно и безоблачно+18°C51 %755 мм4.0 м/с2 %
  • 24мая
    Пятница
    +7°
    +22°
    Практически безоблачно
    ВремяПогодаТемператураВлажностьДавлениеВетер, м/сВероятность осадков
    00:00Ясно и безоблачно+13°C53 %756 мм4.1 м/с2 %
    03:00Ясно и безоблачно+10°C63 %756 мм3.6 м/с2 %
    06:00Ясно и безоблачно+9°C62 %757 мм3.7 м/с2 %
    09:00Ясно и безоблачно+15°C51 %758 мм4.1 м/с2 %
    12:00Небольшая облачность+20°C41 %758 мм4.4 м/с2 %
    15:00Практически безоблачно+20°C35 %757 мм4.2 м/с2 %
    18:00Ясно и безоблачно+21°C34 %757 мм3.8 м/с2 %
    21:00Ясно и безоблачно+15°C50 %757 мм2.6 м/с2 %
  • 25мая
    Суббота
    +8°
    +24°
    Ясно и безоблачно
    ВремяПогодаТемператураВлажностьДавлениеВетер, м/сВероятность осадков
    00:00Ясно и безоблачно+11°C59 %757 мм3.0 м/с2 %
    03:00Ясно и безоблачно+9°C69 %757 мм2.6 м/с2 %
    06:00Ясно и безоблачно+9°C72 %757 мм2.6 м/с2 %
    09:00Ясно и безоблачно+16°C56 %757 мм2.1 м/с2 %
    12:00Ясно и безоблачно+22°C42 %757 мм2.4 м/с2 %
    15:00Ясно и безоблачно+23°C38 %756 мм2.6 м/с2 %
    18:00Ясно и безоблачно+24°C40 %755 мм2.0 м/с2 %
    21:00Ясно и безоблачно+17°C66 %754 мм2.4 м/с2 %
  • 26мая
    Воскресенье
    +11°
    +25°
    Ясно и безоблачно
    ВремяПогодаТемператураВлажностьДавлениеВетер, м/сВероятность осадков
    00:00Ясно и безоблачно+12°C69 %754 мм2.2 м/с2 %
    03:00Ясно и безоблачно+9°C75 %754 мм2.4 м/с2 %
    06:00Небольшая облачность+10°C75 %754 мм1.8 м/с2 %
    09:00Практически безоблачно+19°C54 %755 мм1.0 м/с2 %
    12:00Небольшая облачность+23°C42 %755 мм1.0 м/с2 %
    15:00Ясно и безоблачно+24°C40 %754 мм1.8 м/с2 %
    18:00Облачно с прояснениями+25°C41 %753 мм1.9 м/с2 %
    21:00Ясно и безоблачно+19°C60 %753 мм1.8 м/с2 %
  • 27мая
    Понедельник
    +12°
    +25°
    Пасмурно, сплошная облачность
    ВремяПогодаТемператураВлажностьДавлениеВетер, м/сВероятность осадков
    00:00Ясно и безоблачно+14°C75 %753 мм1.9 м/с2 %
    03:00Практически безоблачно+12°C81 %754 мм1.9 м/с2 %
    06:00Ясно и безоблачно+13°C86 %754 мм2.3 м/с2 %
    09:00Ясно и безоблачно+20°C74 %755 мм2.4 м/с3 %
    12:00Ясно и безоблачно+25°C60 %755 мм2.4 м/с12 %
    15:00Пасмурно, сплошная облачность+25°C54 %755 мм2.1 м/с33 %
    18:00Небольшая облачность и лёгкий дождик+25°C56 %754 мм3.0 м/с23 %
    21:00Ясно и безоблачно+20°C68 %754 мм2.1 м/с8 %
Мы используем cookies
Соглашаюсь